Etusivu
METAR-TAF:

METAR-TAF

Lentoasemat :

Ranger Station

Stanley, Idaho, Yhdysvallat

Leveyspiiri: 44-12-31N, Pituuspiiri: 114-56-04W, korkeus merenpinnasta: 1980 m

Tämänhetkinen sää

Tämä raportti tehtiin 35 minuuttia sitten, kello 21.48 UTC
Tuuli 7 kn pohjoisesta, vaihdellen luoteen ja pohjoisen/koillisen välillä
Lämpötila 25°C
Kosteus 14%
Ilmanpaine 1020 hPa

METAR: KSNT 202148Z AUTO 35007KT 310V030 25/M04 A3013 RMK AO1 SLP124 T02501039

Aika: 16:23 (22:23 UTC)


TAF: puuttuu

Säähavainnot ja -ennusteet yli 4000 lentoasemalta (METAR- ja TAF-raportit).

Käytössä olevat sääasemat on merkitty karttaan keltaisilla ja punaisilla pisteillä.

Aseta hiiri pisteen päälle nähdäksesi sääaseman nimen.

Klikkaa sitten nähdäksesi säähavainnot ja -ennusteet.

Kartan vaihtaminen: klikkaa mustalla rastilla varustettuja vihreitä pisteitä, niin voit zoomata sisään; viivalla varustettua vihreää pistettä, niin voit zoomata ulos tai vihreitä nuolia, niin pääset viereisille kartoille.


METAR-TAF: